Time;durP1;ratioP1;P1;durP2;ratioP2;P2;SDS_P1;SDS_P2;PMS_P1;PMS_P2;Temp;Humidity;BMP_temperature;BMP_pressure;BME280_temperature;BME280_humidity;BME280_pressure;Samples;Min_cycle;Max_cycle;Signal;HPM_P1;HPM_P2
2023/08/15 00:00:36;;;;;;;;;;;24.50;53.70;;;;;;4955653;28;88100;-50
2023/08/15 00:03:01;;;;;;;;;;;24.40;53.70;;;;;;4951141;28;88014;-49
2023/08/15 00:05:27;;;;;;;;;;;24.40;53.70;;;;;;4953301;28;87203;-46
2023/08/15 00:07:52;;;;;;;;;;;24.50;53.80;;;;;;4951893;28;87388;-48
2023/08/15 00:10:18;;;;;;;;;;;24.50;53.80;;;;;;4951895;28;87971;-49
2023/08/15 00:12:43;;;;;;;;;;;24.40;54.40;;;;;;4953972;28;87197;-47
2023/08/15 00:15:09;;;;;;;;;;;24.40;53.80;;;;;;4952628;28;87057;-45
2023/08/15 00:17:35;;;;;;;;;;;24.40;53.80;;;;;;4950645;28;89511;-46
2023/08/15 00:20:00;;;;;;;;;;;24.40;53.80;;;;;;4951404;28;87410;-50
2023/08/15 00:22:26;;;;;;;;;;;24.40;53.80;;;;;;4955972;28;87413;-51
2023/08/15 00:24:51;;;;;;;;;;;24.40;53.80;;;;;;4951588;28;88305;-52
2023/08/15 00:27:18;;;;;;;;;;;24.40;53.80;;;;;;4952583;28;87525;-52
2023/08/15 00:29:43;;;;;;;;;;;24.40;53.80;;;;;;4951279;28;88072;-50
2023/08/15 00:32:09;;;;;;;;;;;24.40;53.80;;;;;;4950036;28;87144;-49
2023/08/15 00:34:34;;;;;;;;;;;24.40;53.80;;;;;;4954263;28;87352;-49
2023/08/15 00:37:00;;;;;;;;;;;24.30;53.70;;;;;;4950715;28;87059;-49
2023/08/15 00:39:25;;;;;;;;;;;24.30;53.80;;;;;;4954429;28;87788;-48
2023/08/15 00:41:51;;;;;;;;;;;24.40;53.80;;;;;;4951963;28;86776;-51
2023/08/15 00:44:16;;;;;;;;;;;24.40;53.80;;;;;;4954225;28;88271;-49
2023/08/15 00:46:43;;;;;;;;;;;24.30;53.80;;;;;;4952119;28;87549;-48
2023/08/15 00:49:09;;;;;;;;;;;24.30;53.90;;;;;;4949656;28;88185;-48
2023/08/15 00:51:34;;;;;;;;;;;24.30;53.80;;;;;;4957088;28;87137;-49
2023/08/15 00:54:00;;;;;;;;;;;24.30;53.80;;;;;;4953619;28;87354;-45
2023/08/15 00:56:25;;;;;;;;;;;24.30;53.80;;;;;;4957036;28;88089;-46
2023/08/15 00:58:52;;;;;;;;;;;24.30;53.80;;;;;;4953653;28;87262;-48
2023/08/15 01:01:17;;;;;;;;;;;24.30;53.80;;;;;;4954765;28;89649;-46
2023/08/15 01:03:43;;;;;;;;;;;24.20;53.80;;;;;;4953452;28;87609;-49
2023/08/15 01:06:09;;;;;;;;;;;24.20;53.70;;;;;;4958881;28;86692;-47
2023/08/15 01:08:34;;;;;;;;;;;24.20;53.70;;;;;;4955607;28;88027;-47
2023/08/15 01:11:00;;;;;;;;;;;24.30;53.80;;;;;;4954587;28;87308;-48
2023/08/15 01:13:28;;;;;;;;;;;24.20;53.60;;;;;;4956627;28;88020;-46
2023/08/15 01:15:53;;;;;;;;;;;24.20;53.70;;;;;;4950164;28;88140;-46
2023/08/15 01:18:22;;;;;;;;;;;24.20;53.70;;;;;;4952799;28;87147;-48
2023/08/15 01:20:49;;;;;;;;;;;24.20;53.70;;;;;;4955347;28;87106;-46
2023/08/15 01:23:16;;;;;;;;;;;24.20;53.70;;;;;;4954674;28;88184;-49
2023/08/15 01:25:42;;;;;;;;;;;24.20;53.80;;;;;;4958355;28;87632;-49
2023/08/15 01:28:15;;;;;;;;;;;24.20;53.70;;;;;;4953650;28;87109;-48
2023/08/15 01:30:41;;;;;;;;;;;24.10;53.70;;;;;;4950281;28;86389;-49
2023/08/15 01:33:13;;;;;;;;;;;24.10;53.80;;;;;;4953988;28;87192;-46
2023/08/15 01:35:43;;;;;;;;;;;24.20;53.80;;;;;;4954045;28;88078;-48
2023/08/15 01:38:17;;;;;;;;;;;24.10;53.80;;;;;;4956127;28;88129;-50
2023/08/15 01:40:44;;;;;;;;;;;24.10;53.80;;;;;;4952745;28;88551;-47
2023/08/15 01:43:13;;;;;;;;;;;24.10;53.80;;;;;;4954466;28;88149;-47
2023/08/15 01:45:39;;;;;;;;;;;24.10;53.80;;;;;;4956378;28;87180;-48
2023/08/15 01:48:04;;;;;;;;;;;24.10;53.80;;;;;;4954223;28;87002;-48
2023/08/15 01:50:30;;;;;;;;;;;24.10;53.80;;;;;;4956539;28;87441;-47
2023/08/15 01:52:56;;;;;;;;;;;24.10;53.80;;;;;;4953835;28;87383;-48
2023/08/15 01:55:21;;;;;;;;;;;24.00;53.70;;;;;;4952691;28;87368;-48
2023/08/15 01:57:47;;;;;;;;;;;24.00;53.70;;;;;;4954554;28;87111;-48
2023/08/15 02:00:12;;;;;;;;;;;24.10;53.80;;;;;;4955558;28;88220;-47
2023/08/15 02:02:38;;;;;;;;;;;24.00;54.30;;;;;;4954389;28;88636;-47
2023/08/15 02:05:03;;;;;;;;;;;24.00;53.70;;;;;;4952291;28;88104;-45
2023/08/15 02:07:29;;;;;;;;;;;24.00;53.70;;;;;;4956349;28;87632;-47
2023/08/15 02:09:55;;;;;;;;;;;24.00;53.90;;;;;;4954457;28;88257;-49
2023/08/15 02:12:20;;;;;;;;;;;24.00;53.80;;;;;;4953812;28;87554;-50
2023/08/15 02:14:45;;;;;;;;;;;24.00;53.80;;;;;;4954487;28;87547;-48
2023/08/15 02:17:11;;;;;;;;;;;24.00;53.80;;;;;;4955079;28;87199;-49
2023/08/15 02:19:36;;;;;;;;;;;24.00;53.80;;;;;;4954627;28;87521;-48
2023/08/15 02:22:02;;;;;;;;;;;24.00;53.80;;;;;;4954908;28;88227;-45
2023/08/15 02:24:29;;;;;;;;;;;24.00;53.80;;;;;;4952914;28;87126;-47
2023/08/15 02:26:54;;;;;;;;;;;24.00;53.80;;;;;;4955862;28;87819;-48
2023/08/15 02:29:20;;;;;;;;;;;24.00;53.80;;;;;;4952573;28;88252;-48
2023/08/15 02:31:46;;;;;;;;;;;24.00;53.80;;;;;;4957205;28;88159;-52
2023/08/15 02:34:12;;;;;;;;;;;24.00;53.80;;;;;;4953753;28;88098;-50
2023/08/15 02:36:37;;;;;;;;;;;23.90;53.80;;;;;;4954294;28;87210;-51
2023/08/15 02:39:03;;;;;;;;;;;23.90;53.90;;;;;;4954754;28;87141;-50
2023/08/15 02:41:29;;;;;;;;;;;23.90;53.90;;;;;;4951367;28;89655;-47
2023/08/15 02:43:54;;;;;;;;;;;23.90;53.90;;;;;;4956545;28;86345;-45
2023/08/15 02:46:20;;;;;;;;;;;23.90;53.80;;;;;;4955244;28;87339;-49
2023/08/15 02:48:45;;;;;;;;;;;23.90;53.90;;;;;;4952220;28;88150;-47
2023/08/15 02:51:11;;;;;;;;;;;23.90;53.90;;;;;;4952445;28;88093;-49
2023/08/15 02:53:36;;;;;;;;;;;23.90;53.90;;;;;;4957021;28;88147;-49
2023/08/15 02:56:02;;;;;;;;;;;23.80;53.80;;;;;;4953158;28;87129;-45
2023/08/15 02:58:27;;;;;;;;;;;23.80;53.90;;;;;;4953862;28;87767;-45
2023/08/15 03:00:53;;;;;;;;;;;23.80;53.90;;;;;;4951403;28;88085;-49
2023/08/15 03:03:18;;;;;;;;;;;23.80;53.90;;;;;;4952672;28;87285;-48
2023/08/15 03:05:44;;;;;;;;;;;23.80;53.90;;;;;;4953485;28;87638;-46
2023/08/15 03:08:09;;;;;;;;;;;23.80;54.00;;;;;;4952192;28;87394;-48
2023/08/15 03:10:36;;;;;;;;;;;23.80;54.00;;;;;;4953673;28;88654;-49
2023/08/15 03:13:02;;;;;;;;;;;23.80;54.00;;;;;;4955487;28;87408;-48
2023/08/15 03:15:28;;;;;;;;;;;23.80;54.00;;;;;;4952252;28;88069;-46
2023/08/15 03:17:54;;;;;;;;;;;23.70;54.00;;;;;;4953484;28;88537;-51
2023/08/15 03:20:20;;;;;;;;;;;23.70;54.00;;;;;;4951872;28;88051;-48
2023/08/15 03:22:46;;;;;;;;;;;23.70;54.00;;;;;;4954920;28;87104;-47
2023/08/15 03:25:11;;;;;;;;;;;23.70;54.30;;;;;;4951240;28;87146;-47
2023/08/15 03:27:37;;;;;;;;;;;23.70;54.00;;;;;;4954769;28;88242;-48
2023/08/15 03:30:03;;;;;;;;;;;23.70;54.00;;;;;;4951994;28;87036;-47
2023/08/15 03:32:28;;;;;;;;;;;23.70;54.00;;;;;;4953419;28;88021;-48
2023/08/15 03:34:54;;;;;;;;;;;23.60;54.00;;;;;;4953981;28;88353;-44
2023/08/15 03:37:19;;;;;;;;;;;23.70;54.10;;;;;;4953722;28;87551;-51
2023/08/15 03:39:45;;;;;;;;;;;23.60;54.00;;;;;;4942295;28;89018;-47
2023/08/15 03:42:10;;;;;;;;;;;23.60;54.00;;;;;;4954730;28;86960;-47
2023/08/15 03:44:36;;;;;;;;;;;23.60;54.00;;;;;;4952944;28;87453;-51
2023/08/15 03:47:01;;;;;;;;;;;23.60;54.00;;;;;;4941356;28;88849;-48
2023/08/15 03:49:27;;;;;;;;;;;23.60;54.00;;;;;;4937443;28;88448;-49
2023/08/15 03:51:52;;;;;;;;;;;23.60;54.00;;;;;;4953977;28;87584;-47
2023/08/15 03:54:18;;;;;;;;;;;23.60;54.00;;;;;;4952211;28;88693;-48
2023/08/15 03:56:43;;;;;;;;;;;23.60;54.00;;;;;;4951220;28;87268;-48
2023/08/15 03:59:09;;;;;;;;;;;23.60;54.00;;;;;;4951837;28;88220;-47
2023/08/15 04:01:35;;;;;;;;;;;23.50;54.00;;;;;;4951552;28;87156;-51
2023/08/15 04:04:00;;;;;;;;;;;23.50;54.00;;;;;;4948582;28;88073;-47
2023/08/15 04:06:26;;;;;;;;;;;23.50;53.90;;;;;;4942507;28;88051;-47
2023/08/15 04:08:51;;;;;;;;;;;23.50;54.10;;;;;;4947739;28;87326;-49
2023/08/15 04:11:17;;;;;;;;;;;23.50;54.10;;;;;;4952149;28;87561;-48
2023/08/15 04:13:42;;;;;;;;;;;23.50;54.10;;;;;;4950537;28;87926;-47
2023/08/15 04:16:08;;;;;;;;;;;23.50;54.10;;;;;;4951789;28;87152;-49
2023/08/15 04:18:35;;;;;;;;;;;23.50;54.10;;;;;;4945597;28;88577;-46
2023/08/15 04:21:00;;;;;;;;;;;23.50;54.10;;;;;;4950272;28;86804;-47
2023/08/15 04:23:26;;;;;;;;;;;23.50;54.10;;;;;;4951308;28;87202;-46
2023/08/15 04:25:52;;;;;;;;;;;23.50;54.10;;;;;;4947184;28;88159;-51
2023/08/15 04:28:17;;;;;;;;;;;23.50;54.10;;;;;;4945230;28;88052;-47
2023/08/15 04:30:43;;;;;;;;;;;23.50;54.10;;;;;;4952362;28;88429;-51
2023/08/15 04:33:08;;;;;;;;;;;23.40;54.10;;;;;;4949305;28;87975;-47
2023/08/15 04:35:34;;;;;;;;;;;23.50;54.20;;;;;;4938093;28;87247;-47
2023/08/15 04:38:00;;;;;;;;;;;23.40;54.10;;;;;;4947090;28;88522;-50
2023/08/15 04:40:30;;;;;;;;;;;23.40;54.10;;;;;;4956060;28;88175;-49
2023/08/15 04:42:55;;;;;;;;;;;23.40;54.10;;;;;;4946411;28;89060;-45
2023/08/15 04:45:21;;;;;;;;;;;23.40;54.70;;;;;;4943212;28;90635;-48
2023/08/15 04:47:46;;;;;;;;;;;23.50;54.20;;;;;;4954822;28;87177;-47
2023/08/15 04:50:12;;;;;;;;;;;23.40;54.10;;;;;;4941178;28;87583;-49
2023/08/15 04:52:37;;;;;;;;;;;23.40;54.20;;;;;;4944375;28;89719;-49
2023/08/15 04:55:03;;;;;;;;;;;23.40;54.20;;;;;;4943788;28;88797;-47
2023/08/15 04:57:28;;;;;;;;;;;23.40;54.20;;;;;;4949140;28;87039;-47
2023/08/15 04:59:54;;;;;;;;;;;23.40;54.80;;;;;;4952917;28;88062;-49
2023/08/15 05:02:20;;;;;;;;;;;23.40;54.20;;;;;;4952755;28;87685;-46
2023/08/15 05:04:45;;;;;;;;;;;23.40;54.30;;;;;;4940088;28;88231;-48
2023/08/15 05:07:11;;;;;;;;;;;23.40;54.20;;;;;;4953104;28;87146;-48
2023/08/15 05:09:37;;;;;;;;;;;23.40;54.20;;;;;;4951033;28;87350;-46
2023/08/15 05:12:03;;;;;;;;;;;23.40;54.30;;;;;;4944738;28;91640;-45
2023/08/15 05:14:29;;;;;;;;;;;23.30;54.30;;;;;;4943179;28;88349;-49
2023/08/15 05:16:54;;;;;;;;;;;23.30;54.30;;;;;;4951226;28;88831;-47
2023/08/15 05:19:20;;;;;;;;;;;23.30;54.30;;;;;;4951530;28;88197;-53
2023/08/15 05:21:45;;;;;;;;;;;23.30;54.30;;;;;;4941077;28;87877;-49
2023/08/15 05:24:11;;;;;;;;;;;23.30;54.30;;;;;;4946222;28;88772;-45
2023/08/15 05:26:36;;;;;;;;;;;23.30;54.30;;;;;;4951026;28;87219;-47
2023/08/15 05:29:02;;;;;;;;;;;23.30;54.30;;;;;;4950805;28;88142;-46
2023/08/15 05:31:28;;;;;;;;;;;23.30;54.30;;;;;;4946323;28;88383;-45
2023/08/15 05:33:53;;;;;;;;;;;23.30;54.30;;;;;;4951128;28;86364;-50
2023/08/15 05:36:20;;;;;;;;;;;23.30;54.30;;;;;;4949730;28;87695;-45
2023/08/15 05:38:45;;;;;;;;;;;23.20;54.20;;;;;;4943446;28;88325;-44
2023/08/15 05:41:11;;;;;;;;;;;23.30;54.30;;;;;;4940980;28;88173;-48
2023/08/15 05:43:36;;;;;;;;;;;23.30;54.30;;;;;;4956719;28;88533;-48
2023/08/15 05:46:02;;;;;;;;;;;23.30;54.20;;;;;;4952941;28;87807;-50
2023/08/15 05:48:29;;;;;;;;;;;23.30;54.30;;;;;;4948242;28;87952;-45
2023/08/15 05:50:54;;;;;;;;;;;23.20;54.20;;;;;;4946706;28;88194;-48
2023/08/15 05:53:19;;;;;;;;;;;23.20;54.20;;;;;;4953261;28;87123;-47
2023/08/15 05:55:45;;;;;;;;;;;23.20;54.00;;;;;;4955738;28;87714;-49
2023/08/15 05:58:10;;;;;;;;;;;23.20;54.00;;;;;;4945324;28;87627;-48
2023/08/15 06:00:37;;;;;;;;;;;23.20;53.80;;;;;;4941528;28;87230;-48
2023/08/15 06:03:03;;;;;;;;;;;23.20;53.70;;;;;;4953127;28;87505;-46
2023/08/15 06:05:29;;;;;;;;;;;23.20;53.70;;;;;;4956235;28;88453;-49
2023/08/15 06:07:55;;;;;;;;;;;23.20;53.70;;;;;;4948071;28;88311;-50
2023/08/15 06:10:20;;;;;;;;;;;23.20;53.70;;;;;;4942479;28;88689;-46
2023/08/15 06:12:46;;;;;;;;;;;23.20;53.70;;;;;;4955227;28;87047;-49
2023/08/15 06:15:11;;;;;;;;;;;23.20;53.60;;;;;;4954702;28;88839;-47
2023/08/15 06:17:37;;;;;;;;;;;23.20;53.60;;;;;;4944774;28;88664;-47
2023/08/15 06:20:03;;;;;;;;;;;23.20;53.70;;;;;;4946944;28;87180;-51
2023/08/15 06:22:29;;;;;;;;;;;23.20;54.30;;;;;;4955985;28;87399;-48
2023/08/15 06:24:54;;;;;;;;;;;23.20;53.60;;;;;;4951510;28;88220;-47
2023/08/15 06:27:20;;;;;;;;;;;23.20;53.70;;;;;;4949908;28;88878;-49
2023/08/15 06:29:45;;;;;;;;;;;23.20;53.70;;;;;;4942411;28;89244;-48
2023/08/15 06:32:31;;;;;;;;;;;23.20;53.70;;;;;;4953278;28;87153;-51
2023/08/15 06:34:57;;;;;;;;;;;23.20;53.70;;;;;;4945063;28;87514;-51
2023/08/15 06:37:23;;;;;;;;;;;23.20;54.40;;;;;;4951668;28;87922;-48
2023/08/15 06:39:48;;;;;;;;;;;23.10;53.80;;;;;;4952253;28;87359;-51
2023/08/15 06:42:14;;;;;;;;;;;23.20;54.00;;;;;;4955671;28;87156;-46
2023/08/15 06:44:43;;;;;;;;;;;23.20;54.60;;;;;;4950072;28;88004;-50
2023/08/15 06:47:09;;;;;;;;;;;23.20;54.00;;;;;;4943565;28;88192;-46
2023/08/15 06:49:34;;;;;;;;;;;23.20;54.10;;;;;;4953881;28;87216;-52
2023/08/15 06:52:00;;;;;;;;;;;23.20;54.20;;;;;;4952859;28;87619;-47
2023/08/15 06:54:25;;;;;;;;;;;23.20;54.20;;;;;;4949146;28;88408;-49
2023/08/15 06:56:51;;;;;;;;;;;23.20;54.20;;;;;;4946050;28;87484;-48
2023/08/15 06:59:17;;;;;;;;;;;23.20;54.30;;;;;;4948773;28;87200;-45
2023/08/15 07:01:43;;;;;;;;;;;23.20;54.30;;;;;;4954731;28;87526;-46
2023/08/15 07:04:09;;;;;;;;;;;23.20;54.40;;;;;;4950123;28;88116;-45
2023/08/15 07:06:34;;;;;;;;;;;23.20;54.40;;;;;;4947764;28;87802;-45
2023/08/15 07:09:00;;;;;;;;;;;23.20;54.50;;;;;;4951893;28;87597;-52
2023/08/15 07:11:25;;;;;;;;;;;23.20;54.50;;;;;;4956797;28;87512;-45
2023/08/15 07:13:51;;;;;;;;;;;23.20;54.50;;;;;;4947131;28;87144;-49
2023/08/15 07:16:16;;;;;;;;;;;23.20;54.50;;;;;;4949090;28;88142;-49
2023/08/15 07:18:42;;;;;;;;;;;23.20;54.60;;;;;;4951387;28;88721;-52
2023/08/15 07:21:07;;;;;;;;;;;23.20;54.70;;;;;;4954748;28;88606;-48
2023/08/15 07:23:33;;;;;;;;;;;23.20;55.30;;;;;;4940452;28;88343;-49
2023/08/15 07:25:58;;;;;;;;;;;23.20;54.80;;;;;;4942739;28;87199;-51
2023/08/15 07:28:24;;;;;;;;;;;23.20;54.80;;;;;;4954399;28;87603;-48
2023/08/15 07:30:50;;;;;;;;;;;23.20;54.90;;;;;;4955524;28;88025;-53
2023/08/15 07:33:15;;;;;;;;;;;23.30;55.00;;;;;;4945594;28;87767;-46
2023/08/15 07:35:41;;;;;;;;;;;23.30;55.00;;;;;;4946314;28;87135;-49
2023/08/15 07:38:07;;;;;;;;;;;23.20;55.00;;;;;;4954535;28;87184;-48
2023/08/15 07:40:33;;;;;;;;;;;23.20;55.20;;;;;;4950787;28;90262;-51
2023/08/15 07:42:58;;;;;;;;;;;23.30;55.10;;;;;;4937513;28;90556;-45
2023/08/15 07:45:24;;;;;;;;;;;23.20;55.20;;;;;;4948681;28;88163;-50
2023/08/15 07:47:52;;;;;;;;;;;23.20;55.20;;;;;;4954539;28;87493;-47
2023/08/15 07:50:18;;;;;;;;;;;23.20;55.20;;;;;;4951403;28;88020;-50
2023/08/15 07:52:46;;;;;;;;;;;23.30;55.30;;;;;;4948445;28;87804;-49
2023/08/15 07:55:12;;;;;;;;;;;23.30;55.30;;;;;;4949314;28;87897;-47
2023/08/15 07:57:38;;;;;;;;;;;23.30;55.30;;;;;;4954087;28;87211;-45
2023/08/15 08:00:04;;;;;;;;;;;23.30;55.40;;;;;;4948787;28;87417;-48
2023/08/15 08:02:30;;;;;;;;;;;23.20;55.40;;;;;;4944022;28;90004;-48
2023/08/15 08:04:55;;;;;;;;;;;23.30;55.40;;;;;;4948179;28;87178;-49
2023/08/15 08:07:21;;;;;;;;;;;23.20;55.40;;;;;;4950230;28;88022;-49
2023/08/15 08:09:46;;;;;;;;;;;23.30;55.50;;;;;;4949423;28;87375;-48
2023/08/15 08:12:12;;;;;;;;;;;23.30;55.50;;;;;;4943448;28;88706;-50
2023/08/15 08:14:37;;;;;;;;;;;23.30;55.60;;;;;;4953488;28;87114;-47
2023/08/15 08:17:04;;;;;;;;;;;23.30;55.60;;;;;;4953094;28;87114;-49
2023/08/15 08:19:29;;;;;;;;;;;23.30;55.60;;;;;;4951217;28;87475;-49
2023/08/15 08:21:54;;;;;;;;;;;23.30;55.60;;;;;;4943000;28;88310;-47
2023/08/15 08:24:20;;;;;;;;;;;23.30;55.70;;;;;;4953716;28;87240;-48
2023/08/15 08:26:45;;;;;;;;;;;23.20;55.60;;;;;;4949814;28;88266;-46
2023/08/15 08:29:11;;;;;;;;;;;23.30;55.70;;;;;;4940883;28;87371;-50
2023/08/15 08:31:39;;;;;;;;;;;23.30;55.80;;;;;;4945290;28;88470;-50
2023/08/15 08:34:05;;;;;;;;;;;23.30;55.90;;;;;;4954524;28;88252;-48
2023/08/15 08:36:31;;;;;;;;;;;23.30;55.80;;;;;;4947133;28;88015;-47
2023/08/15 08:38:56;;;;;;;;;;;23.30;55.70;;;;;;4938501;28;87414;-52
2023/08/15 08:41:23;;;;;;;;;;;23.30;55.80;;;;;;4942181;28;91407;-48
2023/08/15 08:43:48;;;;;;;;;;;23.30;55.80;;;;;;4952860;28;87061;-51
2023/08/15 08:46:14;;;;;;;;;;;23.30;55.80;;;;;;4950315;28;87446;-48
2023/08/15 08:48:41;;;;;;;;;;;23.30;55.80;;;;;;4945867;28;87495;-48
2023/08/15 08:51:08;;;;;;;;;;;23.30;55.80;;;;;;4947954;28;87136;-45
2023/08/15 08:53:34;;;;;;;;;;;23.30;55.80;;;;;;4950683;28;87544;-49
2023/08/15 08:56:00;;;;;;;;;;;23.30;56.00;;;;;;4946205;28;89720;-52
2023/08/15 08:58:27;;;;;;;;;;;23.30;55.90;;;;;;4949890;28;87454;-45
2023/08/15 09:00:52;;;;;;;;;;;23.30;56.00;;;;;;4949299;28;88274;-45
2023/08/15 09:03:18;;;;;;;;;;;23.30;56.00;;;;;;4949785;28;87053;-47
2023/08/15 09:05:43;;;;;;;;;;;23.30;56.10;;;;;;4944696;28;87764;-49
2023/08/15 09:08:09;;;;;;;;;;;23.30;55.90;;;;;;4944272;28;88109;-51
2023/08/15 09:10:35;;;;;;;;;;;23.30;56.40;;;;;;4953011;28;87236;-48
2023/08/15 09:13:00;;;;;;;;;;;23.30;56.20;;;;;;4950742;28;87382;-47
2023/08/15 09:15:26;;;;;;;;;;;23.30;56.20;;;;;;4950148;28;89670;-48
2023/08/15 09:17:56;;;;;;;;;;;23.30;56.20;;;;;;4947694;28;88568;-48
2023/08/15 09:20:22;;;;;;;;;;;23.30;56.20;;;;;;4955347;28;87897;-45
2023/08/15 09:22:47;;;;;;;;;;;23.20;56.30;;;;;;4950479;28;87324;-47
2023/08/15 09:25:20;;;;;;;;;;;23.30;56.40;;;;;;4952884;28;87557;-50
2023/08/15 09:27:46;;;;;;;;;;;23.30;56.40;;;;;;4948820;28;88310;-51
2023/08/15 09:30:13;;;;;;;;;;;23.30;56.40;;;;;;4954668;28;87231;-50
2023/08/15 09:32:39;;;;;;;;;;;23.30;56.70;;;;;;4957056;28;87585;-47
2023/08/15 09:35:05;;;;;;;;;;;23.30;56.50;;;;;;4945745;28;90214;-46
2023/08/15 09:37:31;;;;;;;;;;;23.30;56.60;;;;;;4946205;28;87786;-50
2023/08/15 09:39:57;;;;;;;;;;;23.30;56.50;;;;;;4957964;28;90044;-48
2023/08/15 09:42:23;;;;;;;;;;;23.30;56.50;;;;;;4950966;28;87094;-49
2023/08/15 09:44:49;;;;;;;;;;;23.30;57.00;;;;;;4952937;28;88129;-46
2023/08/15 09:47:15;;;;;;;;;;;23.30;56.90;;;;;;4945968;28;88062;-46
2023/08/15 09:49:41;;;;;;;;;;;23.40;56.90;;;;;;4955329;28;87131;-47
2023/08/15 09:52:08;;;;;;;;;;;23.30;57.10;;;;;;4952846;28;87806;-50
2023/08/15 09:54:34;;;;;;;;;;;23.40;56.90;;;;;;4949920;28;88151;-46
2023/08/15 09:57:00;;;;;;;;;;;23.40;57.00;;;;;;4938628;28;88836;-48
2023/08/15 09:59:26;;;;;;;;;;;23.40;57.20;;;;;;4956743;28;87092;-45
2023/08/15 10:01:53;;;;;;;;;;;23.40;56.80;;;;;;4955886;28;87521;-49
2023/08/15 10:04:20;;;;;;;;;;;23.40;56.90;;;;;;4946325;28;87264;-51
2023/08/15 10:06:47;;;;;;;;;;;23.40;56.90;;;;;;4950853;28;88969;-49
2023/08/15 10:09:14;;;;;;;;;;;23.40;56.90;;;;;;4954054;28;88232;-44
2023/08/15 10:11:42;;;;;;;;;;;23.40;56.60;;;;;;4950080;28;89126;-48
2023/08/15 10:14:08;;;;;;;;;;;23.40;57.00;;;;;;4946298;28;88735;-49
2023/08/15 10:16:34;;;;;;;;;;;23.40;56.80;;;;;;4950097;28;87111;-48
2023/08/15 10:19:01;;;;;;;;;;;23.40;56.60;;;;;;4954048;28;87422;-48
2023/08/15 10:21:45;;;;;;;;;;;23.40;56.80;;;;;;4949341;28;87220;-50
2023/08/15 10:24:10;;;;;;;;;;;23.40;56.80;;;;;;4945230;28;87865;-50
2023/08/15 10:26:37;;;;;;;;;;;23.40;56.70;;;;;;4948226;28;87673;-50
2023/08/15 10:29:03;;;;;;;;;;;23.40;56.80;;;;;;4953860;28;87073;-45
2023/08/15 10:31:33;;;;;;;;;;;23.40;56.90;;;;;;4944866;28;87296;-48
2023/08/15 10:34:01;;;;;;;;;;;23.40;56.60;;;;;;4942102;28;88658;-52
2023/08/15 10:36:26;;;;;;;;;;;23.40;56.90;;;;;;4952918;28;87087;-46
2023/08/15 10:38:52;;;;;;;;;;;23.40;56.60;;;;;;4955309;28;87749;-45
2023/08/15 10:41:19;;;;;;;;;;;23.40;56.70;;;;;;4947359;28;88055;-47
2023/08/15 10:43:52;;;;;;;;;;;23.40;56.80;;;;;;4945198;28;87196;-47
2023/08/15 10:46:24;;;;;;;;;;;23.40;56.80;;;;;;4953852;28;87777;-47
2023/08/15 10:48:51;;;;;;;;;;;23.40;56.80;;;;;;4953057;28;87113;-52
2023/08/15 10:51:18;;;;;;;;;;;23.40;56.90;;;;;;4950633;28;88225;-47
2023/08/15 10:53:46;;;;;;;;;;;23.40;56.80;;;;;;4942509;28;88462;-45
2023/08/15 10:56:11;;;;;;;;;;;23.40;56.90;;;;;;4952488;28;87182;-49
2023/08/15 10:58:37;;;;;;;;;;;23.50;57.00;;;;;;4953263;28;88085;-47
2023/08/15 11:01:03;;;;;;;;;;;23.40;56.90;;;;;;4948315;28;88002;-50
2023/08/15 11:03:28;;;;;;;;;;;23.50;57.00;;;;;;4946787;28;89105;-50
2023/08/15 11:06:05;;;;;;;;;;;23.40;56.90;;;;;;4951673;28;87440;-47
2023/08/15 11:08:30;;;;;;;;;;;23.50;56.90;;;;;;4950262;28;87645;-47
2023/08/15 11:10:56;;;;;;;;;;;23.40;56.90;;;;;;4943777;28;87566;-47
2023/08/15 11:13:21;;;;;;;;;;;23.40;56.90;;;;;;4948823;28;88096;-47
2023/08/15 11:15:47;;;;;;;;;;;23.50;56.90;;;;;;4955471;28;86430;-45
2023/08/15 11:18:23;;;;;;;;;;;23.50;56.90;;;;;;4953316;28;87305;-48
2023/08/15 11:20:48;;;;;;;;;;;23.50;56.80;;;;;;4947547;28;88125;-48
2023/08/15 11:23:17;;;;;;;;;;;23.50;56.90;;;;;;4945016;28;88252;-48
2023/08/15 11:25:42;;;;;;;;;;;23.50;56.80;;;;;;4948371;28;88363;-52
2023/08/15 11:28:08;;;;;;;;;;;23.50;56.80;;;;;;4955061;28;88105;-48
2023/08/15 11:30:33;;;;;;;;;;;23.50;56.80;;;;;;4942515;28;87736;-48
2023/08/15 11:32:59;;;;;;;;;;;23.50;56.80;;;;;;4947640;28;87601;-48
2023/08/15 11:35:25;;;;;;;;;;;23.50;56.80;;;;;;4953566;28;87184;-48
2023/08/15 11:37:51;;;;;;;;;;;23.50;56.80;;;;;;4942713;28;87670;-46
2023/08/15 11:40:16;;;;;;;;;;;23.50;56.80;;;;;;4942076;28;87552;-48
2023/08/15 11:42:42;;;;;;;;;;;23.50;57.00;;;;;;4950982;28;87296;-50
2023/08/15 11:45:08;;;;;;;;;;;23.50;56.70;;;;;;4951316;28;87790;-48
2023/08/15 11:47:51;;;;;;;;;;;23.50;56.60;;;;;;4950144;28;89146;-46
2023/08/15 11:50:18;;;;;;;;;;;23.60;56.70;;;;;;4943188;28;88012;-45
2023/08/15 11:52:43;;;;;;;;;;;23.50;56.60;;;;;;4954678;28;88167;-48
2023/08/15 11:55:10;;;;;;;;;;;23.60;56.60;;;;;;4949761;28;87682;-50
2023/08/15 11:57:35;;;;;;;;;;;23.60;56.70;;;;;;4944059;28;89209;-50
2023/08/15 12:00:04;;;;;;;;;;;23.60;56.60;;;;;;4946487;28;87830;-46
2023/08/15 12:02:29;;;;;;;;;;;23.60;56.60;;;;;;4951860;28;87843;-48
2023/08/15 12:04:55;;;;;;;;;;;23.50;56.50;;;;;;4947420;28;87614;-50
2023/08/15 12:07:20;;;;;;;;;;;23.60;56.60;;;;;;4954343;28;88460;-48
2023/08/15 12:09:46;;;;;;;;;;;23.60;56.60;;;;;;4949838;28;87320;-49
2023/08/15 12:12:19;;;;;;;;;;;23.60;56.50;;;;;;4954080;28;88072;-48
2023/08/15 12:14:44;;;;;;;;;;;23.60;56.50;;;;;;4948627;28;87111;-46
2023/08/15 12:17:10;;;;;;;;;;;23.60;56.60;;;;;;4945038;28;87520;-47
2023/08/15 12:19:35;;;;;;;;;;;23.60;56.50;;;;;;4951416;28;87576;-49
2023/08/15 12:22:02;;;;;;;;;;;23.60;56.60;;;;;;4951022;28;87135;-48
2023/08/15 12:24:28;;;;;;;;;;;23.60;56.50;;;;;;4944455;28;87375;-49
2023/08/15 12:26:53;;;;;;;;;;;23.60;56.50;;;;;;4946814;28;87387;-48
2023/08/15 12:29:19;;;;;;;;;;;23.60;56.50;;;;;;4950677;28;86408;-47
2023/08/15 12:31:45;;;;;;;;;;;23.60;56.50;;;;;;4949449;28;90240;-49
2023/08/15 12:34:10;;;;;;;;;;;23.60;56.50;;;;;;4948846;28;88000;-52
2023/08/15 12:36:36;;;;;;;;;;;23.70;56.50;;;;;;4947170;28;89692;-48
2023/08/15 12:39:03;;;;;;;;;;;23.70;56.50;;;;;;4945384;28;89185;-50
2023/08/15 12:41:28;;;;;;;;;;;23.60;56.40;;;;;;4950519;28;87177;-49
2023/08/15 12:43:54;;;;;;;;;;;23.70;56.40;;;;;;4951081;28;87739;-47
2023/08/15 12:46:20;;;;;;;;;;;23.60;56.40;;;;;;4951597;28;88081;-47
2023/08/15 12:48:45;;;;;;;;;;;23.60;56.40;;;;;;4956710;28;87146;-49
2023/08/15 12:51:11;;;;;;;;;;;23.70;56.50;;;;;;4959325;28;87539;-50
2023/08/15 12:53:36;;;;;;;;;;;23.70;56.40;;;;;;4950466;28;87451;-51
2023/08/15 12:56:02;;;;;;;;;;;23.70;56.50;;;;;;4948885;28;87188;-48
2023/08/15 12:58:28;;;;;;;;;;;23.70;56.50;;;;;;4956495;28;87247;-50
2023/08/15 13:00:53;;;;;;;;;;;23.70;56.50;;;;;;4959072;28;88665;-47
2023/08/15 13:03:19;;;;;;;;;;;23.70;56.50;;;;;;4946067;28;88599;-47
2023/08/15 13:05:46;;;;;;;;;;;23.70;57.10;;;;;;4946403;28;88888;-53
2023/08/15 13:08:11;;;;;;;;;;;23.70;56.50;;;;;;4956522;28;87068;-46
2023/08/15 13:10:37;;;;;;;;;;;23.70;56.60;;;;;;4956966;28;88706;-49
2023/08/15 13:13:03;;;;;;;;;;;23.70;56.60;;;;;;4955124;28;88026;-48
2023/08/15 13:15:28;;;;;;;;;;;23.70;56.60;;;;;;4950717;28;87266;-45
2023/08/15 13:17:54;;;;;;;;;;;23.70;56.60;;;;;;4959517;28;87536;-44
2023/08/15 13:20:19;;;;;;;;;;;23.70;56.60;;;;;;4960148;28;88784;-47
2023/08/15 13:22:45;;;;;;;;;;;23.70;56.70;;;;;;4944666;28;87456;-45
2023/08/15 13:25:10;;;;;;;;;;;23.70;56.60;;;;;;4951625;28;89883;-49
2023/08/15 13:27:36;;;;;;;;;;;23.70;56.70;;;;;;4958958;28;87018;-51
2023/08/15 13:30:02;;;;;;;;;;;23.70;56.60;;;;;;4958738;28;87511;-48
2023/08/15 13:32:27;;;;;;;;;;;23.70;56.60;;;;;;4950974;28;88052;-49
2023/08/15 13:34:53;;;;;;;;;;;23.70;56.60;;;;;;4946188;28;87199;-48
2023/08/15 13:37:18;;;;;;;;;;;23.70;56.70;;;;;;4962168;28;86979;-49
2023/08/15 13:39:44;;;;;;;;;;;23.70;56.60;;;;;;4955714;28;87658;-46
2023/08/15 13:42:10;;;;;;;;;;;23.70;56.70;;;;;;4954420;28;86484;-42
2023/08/15 13:44:38;;;;;;;;;;;23.70;58.70;;;;;;4950567;28;88010;-41
2023/08/15 13:47:04;;;;;;;;;;;23.70;58.70;;;;;;4956114;28;87186;-47
2023/08/15 13:49:30;;;;;;;;;;;23.60;59.70;;;;;;4957066;28;88223;-45
2023/08/15 13:51:55;;;;;;;;;;;23.80;59.20;;;;;;4947380;28;88170;-45
2023/08/15 13:54:22;;;;;;;;;;;23.90;59.00;;;;;;4946294;28;87513;-44
2023/08/15 13:56:48;;;;;;;;;;;23.90;58.90;;;;;;4956240;28;87476;-43
2023/08/15 13:59:13;;;;;;;;;;;23.80;58.70;;;;;;4955524;28;88761;-44
2023/08/15 14:01:39;;;;;;;;;;;23.70;58.80;;;;;;4947467;28;87131;-44
2023/08/15 14:04:05;;;;;;;;;;;23.70;59.00;;;;;;4947723;28;87239;-47
2023/08/15 14:06:30;;;;;;;;;;;23.60;59.00;;;;;;4955249;28;86522;-44
2023/08/15 14:08:56;;;;;;;;;;;23.70;59.20;;;;;;4947461;28;87565;-45